createdAt,value
2018-12-23T00:01:59.731Z,20.67
2018-12-23T00:04:04.729Z,16.50
2018-12-23T00:06:19.576Z,16.80
2018-12-23T00:08:24.779Z,23.90
2018-12-23T00:10:29.735Z,24.60
2018-12-23T00:12:35.032Z,12.77
2018-12-23T00:14:40.227Z,19.30
2018-12-23T00:16:45.145Z,14.73
2018-12-23T00:18:50.131Z,15.97
2018-12-23T00:20:55.008Z,22.07
2018-12-23T00:23:00.269Z,7.80
2018-12-23T00:25:05.612Z,16.47
2018-12-23T00:27:10.936Z,14.23
2018-12-23T00:29:15.790Z,11.37
2018-12-23T00:31:20.598Z,21.40
2018-12-23T00:33:26.177Z,15.87
2018-12-23T00:35:32.641Z,17.13
2018-12-23T00:37:37.354Z,15.63
2018-12-23T00:39:42.358Z,15.47
2018-12-23T00:41:47.387Z,21.23
2018-12-23T00:43:52.220Z,34.70
2018-12-23T00:45:57.220Z,10.27
2018-12-23T00:48:02.010Z,20.73
2018-12-23T00:50:08.356Z,15.60
2018-12-23T00:52:13.272Z,11.73
2018-12-23T00:54:18.472Z,31.30
2018-12-23T00:56:23.442Z,18.23
2018-12-23T00:58:28.186Z,14.67
2018-12-23T01:00:33.398Z,12.30
2018-12-23T01:02:38.653Z,17.30
2018-12-23T01:04:43.451Z,8.10
2018-12-23T01:06:48.442Z,14.10
2018-12-23T01:08:53.438Z,11.40
2018-12-23T01:11:00.190Z,26.27
2018-12-23T01:13:05.373Z,12.67
2018-12-23T01:15:10.626Z,15.53
2018-12-23T01:17:15.520Z,17.13
2018-12-23T01:19:20.746Z,24.23
2018-12-23T01:21:29.350Z,23.70
2018-12-23T01:23:36.724Z,22.27
2018-12-23T01:25:41.810Z,15.93
2018-12-23T01:27:46.452Z,9.23
2018-12-23T01:29:51.475Z,17.50
2018-12-23T01:31:56.476Z,38.33
2018-12-23T01:34:01.217Z,17.97
2018-12-23T01:36:06.052Z,9.00
2018-12-23T01:38:11.109Z,18.20
2018-12-23T01:40:15.783Z,34.43
2018-12-23T01:42:20.443Z,24.97
2018-12-23T01:44:25.592Z,22.63
2018-12-23T01:46:30.747Z,17.63
2018-12-23T01:48:36.006Z,19.87
2018-12-23T01:50:41.157Z,18.33
2018-12-23T01:52:46.088Z,15.23
2018-12-23T01:54:50.936Z,11.33
2018-12-23T01:56:55.977Z,16.07
2018-12-23T01:59:01.025Z,18.33
2018-12-23T02:01:06.161Z,19.50
2018-12-23T02:03:11.327Z,17.40
2018-12-23T02:05:16.376Z,26.23
2018-12-23T02:07:21.528Z,26.20
2018-12-23T02:09:26.595Z,16.40
2018-12-23T02:11:31.621Z,12.50
2018-12-23T02:13:37.895Z,25.80
2018-12-23T02:15:42.985Z,25.10
2018-12-23T02:17:48.041Z,25.30
2018-12-23T02:19:53.252Z,22.70
2018-12-23T02:21:59.320Z,9.03
2018-12-23T02:24:04.500Z,14.27
2018-12-23T02:26:11.989Z,26.23
2018-12-23T02:28:17.071Z,26.23
2018-12-23T02:30:22.092Z,19.90
2018-12-23T02:32:26.933Z,23.53
2018-12-23T02:34:31.860Z,12.60
2018-12-23T02:36:37.266Z,30.90
2018-12-23T02:38:42.414Z,26.37
2018-12-23T02:40:47.476Z,10.20
2018-12-23T02:42:52.158Z,27.57
2018-12-23T02:44:57.044Z,30.80
2018-12-23T02:47:01.824Z,20.43
2018-12-23T02:49:06.998Z,19.07
2018-12-23T02:51:12.055Z,13.80
2018-12-23T02:53:17.139Z,20.80
2018-12-23T02:55:22.551Z,22.83
2018-12-23T02:57:27.599Z,33.50
2018-12-23T02:59:32.533Z,15.00
2018-12-23T03:01:37.540Z,26.90
2018-12-23T03:03:42.718Z,12.73
2018-12-23T03:05:47.596Z,21.80
2018-12-23T03:07:53.263Z,20.23
2018-12-23T03:09:58.178Z,13.37
2018-12-23T03:12:03.175Z,21.17
2018-12-23T03:14:09.308Z,20.20
2018-12-23T03:16:14.409Z,20.70
2018-12-23T03:18:19.345Z,19.30
2018-12-23T03:20:24.379Z,27.10
2018-12-23T03:22:29.600Z,15.33
2018-12-23T03:24:34.911Z,21.53
2018-12-23T03:26:40.893Z,22.33
2018-12-23T03:28:46.055Z,13.57
2018-12-23T03:30:50.893Z,21.37
2018-12-23T03:32:56.082Z,26.17
2018-12-23T03:35:03.615Z,14.53
2018-12-23T03:37:08.486Z,20.70
2018-12-23T03:39:13.574Z,16.40
2018-12-23T03:41:18.462Z,27.67
2018-12-23T03:43:25.048Z,20.23
2018-12-23T03:45:30.101Z,30.20
2018-12-23T03:47:34.825Z,14.23
2018-12-23T03:49:39.969Z,17.83
2018-12-23T03:51:44.949Z,22.43
2018-12-23T03:53:49.804Z,23.70
2018-12-23T03:55:54.944Z,25.20
2018-12-23T03:58:00.048Z,15.37
2018-12-23T04:00:05.304Z,17.77
2018-12-23T04:02:10.233Z,29.23
2018-12-23T04:04:15.078Z,19.07
2018-12-23T04:06:24.519Z,23.10
2018-12-23T04:08:27.354Z,34.20
2018-12-23T04:10:32.521Z,18.30
2018-12-23T04:12:37.750Z,24.53
2018-12-23T04:14:42.606Z,34.37
2018-12-23T04:16:48.650Z,18.83
2018-12-23T04:18:53.924Z,32.83
2018-12-23T04:20:59.163Z,31.50
2018-12-23T04:23:04.682Z,24.83
2018-12-23T04:25:09.794Z,16.10
2018-12-23T04:27:14.883Z,28.23
2018-12-23T04:29:19.719Z,23.13
2018-12-23T04:31:24.931Z,30.30
2018-12-23T04:33:30.920Z,23.33
2018-12-23T04:35:35.770Z,30.97
2018-12-23T04:37:40.584Z,25.63
2018-12-23T04:39:46.943Z,26.67
2018-12-23T04:41:52.804Z,28.83
2018-12-23T04:43:57.958Z,29.47
2018-12-23T04:46:02.957Z,23.30
2018-12-23T04:48:08.808Z,17.33
2018-12-23T04:50:14.311Z,36.60
2018-12-23T04:52:19.464Z,22.20
2018-12-23T04:54:25.994Z,31.73
2018-12-23T04:56:30.984Z,23.40
2018-12-23T04:58:35.820Z,21.47
2018-12-23T05:00:40.660Z,27.80
2018-12-23T05:02:45.334Z,29.03
2018-12-23T05:04:50.429Z,32.33
2018-12-23T05:06:56.206Z,24.07
2018-12-23T05:09:02.048Z,37.47
2018-12-23T05:11:07.163Z,32.37
2018-12-23T05:13:11.967Z,17.03
2018-12-23T05:15:16.925Z,15.03
2018-12-23T05:17:23.652Z,35.00
2018-12-23T05:19:28.359Z,18.20
2018-12-23T05:21:33.115Z,19.47
2018-12-23T05:23:37.861Z,27.07
2018-12-23T05:25:42.772Z,29.90
2018-12-23T05:30:52.715Z,26.03
2018-12-23T05:33:19.308Z,30.73
2018-12-23T05:35:25.990Z,29.20
2018-12-23T05:37:34.877Z,30.93
2018-12-23T05:39:44.806Z,29.30
2018-12-23T05:41:52.393Z,33.87
2018-12-23T05:43:59.100Z,30.03
2018-12-23T05:46:05.533Z,31.70
2018-12-23T05:48:12.606Z,15.77
2018-12-23T05:50:38.127Z,28.23
2018-12-23T05:53:03.811Z,15.37
2018-12-23T05:55:11.523Z,27.17
2018-12-23T05:58:10.383Z,33.27
2018-12-23T06:00:10.153Z,41.60
2018-12-23T06:02:17.086Z,22.93
2018-12-23T06:04:25.230Z,33.83
2018-12-23T06:07:00.781Z,29.27
2018-12-23T06:09:05.540Z,19.43
2018-12-23T06:11:12.131Z,32.97
2018-12-23T06:13:19.551Z,29.67
2018-12-23T06:15:27.151Z,23.43
2018-12-23T06:17:33.279Z,31.67
2018-12-23T06:19:39.814Z,25.50
2018-12-23T06:21:50.116Z,28.90
2018-12-23T06:24:15.625Z,35.33
2018-12-23T06:26:28.090Z,34.30
2018-12-23T06:28:54.028Z,30.20
2018-12-23T06:31:02.272Z,19.47
2018-12-23T06:33:09.885Z,39.70
2018-12-23T06:35:17.407Z,27.60
2018-12-23T06:37:23.975Z,29.40
2018-12-23T06:42:09.474Z,21.13
2018-12-23T06:44:15.717Z,20.00
2018-12-23T06:46:26.621Z,25.10
2018-12-23T06:48:35.932Z,26.40
2018-12-23T06:51:01.436Z,35.37
2018-12-23T06:53:08.213Z,17.90
2018-12-23T06:55:37.200Z,21.83
2018-12-23T06:58:06.271Z,37.00
2018-12-23T07:00:31.766Z,21.10
2018-12-23T07:02:48.562Z,25.43
2018-12-23T07:05:15.880Z,26.97
2018-12-23T07:07:55.758Z,16.43
2018-12-23T07:10:50.003Z,21.97
2018-12-23T07:12:55.575Z,15.63
2018-12-23T07:15:23.708Z,27.23
2018-12-23T07:18:15.680Z,40.47
2018-12-23T07:21:04.283Z,22.97
2018-12-23T07:29:54.505Z,24.17
2018-12-23T07:35:24.058Z,18.67
2018-12-23T07:40:30.494Z,23.00
2018-12-23T07:42:37.507Z,29.10
2018-12-23T07:44:43.719Z,27.77
2018-12-23T07:46:50.450Z,20.70
2018-12-23T07:49:08.152Z,16.40
2018-12-23T07:51:40.055Z,17.40
2018-12-23T07:53:47.214Z,19.63
2018-12-23T07:56:25.039Z,26.03
2018-12-23T07:58:42.216Z,27.03
2018-12-23T08:01:07.397Z,20.40
2018-12-23T08:05:44.374Z,26.63
2018-12-23T08:07:51.346Z,22.73
2018-12-23T08:10:02.168Z,24.80
2018-12-23T08:12:09.664Z,20.13
2018-12-23T08:14:16.859Z,14.53
2018-12-23T08:16:23.062Z,23.23
2018-12-23T08:18:35.715Z,18.40
2018-12-23T08:20:42.727Z,13.20
2018-12-23T08:23:08.221Z,12.73
2018-12-23T08:25:15.173Z,14.60
2018-12-23T08:27:23.607Z,28.20
2018-12-23T08:29:30.086Z,25.63
2018-12-23T08:31:37.503Z,21.17
2018-12-23T08:33:44.677Z,20.97
2018-12-23T08:35:50.926Z,10.90
2018-12-23T08:38:16.434Z,21.20
2018-12-23T08:40:23.903Z,17.80
2018-12-23T08:42:49.127Z,13.53
2018-12-23T08:44:55.960Z,15.37
2018-12-23T08:47:21.837Z,13.17
2018-12-23T08:49:47.052Z,12.27
2018-12-23T08:51:55.500Z,22.03
2018-12-23T08:54:02.266Z,18.17
2018-12-23T08:56:11.166Z,21.80
2018-12-23T08:58:31.055Z,19.43
2018-12-23T09:00:29.394Z,15.87
2018-12-23T09:02:55.837Z,16.90
2018-12-23T09:05:03.157Z,20.63
2018-12-23T09:07:09.622Z,10.30
2018-12-23T09:09:16.586Z,15.37
2018-12-23T09:11:23.398Z,13.00
2018-12-23T09:13:29.726Z,14.30
2018-12-23T09:15:36.928Z,6.93
2018-12-23T09:17:43.851Z,21.30
2018-12-23T09:19:50.625Z,8.03
2018-12-23T09:21:58.598Z,26.50
2018-12-23T09:24:05.890Z,20.70
2018-12-23T09:26:13.717Z,10.07
2018-12-23T09:28:21.476Z,19.57
2018-12-23T09:30:27.919Z,16.27
2018-12-23T09:32:37.121Z,20.50
2018-12-23T09:34:44.669Z,13.90
2018-12-23T09:36:54.273Z,18.57
2018-12-23T09:39:01.451Z,20.70
2018-12-23T09:41:08.321Z,20.80
2018-12-23T09:43:15.330Z,15.03
2018-12-23T09:45:22.535Z,12.13
2018-12-23T09:47:28.853Z,18.27
2018-12-23T09:49:55.076Z,18.53
2018-12-23T09:52:13.738Z,10.60
2018-12-23T09:54:20.269Z,22.07
2018-12-23T09:56:27.371Z,12.30
2018-12-23T09:58:35.026Z,19.53
2018-12-23T10:00:41.487Z,10.57
2018-12-23T10:02:51.807Z,11.63
2018-12-23T10:05:00.168Z,23.93
2018-12-23T10:07:06.775Z,21.30
2018-12-23T10:09:13.491Z,14.27
2018-12-23T10:11:20.438Z,13.47
2018-12-23T10:13:26.730Z,29.50
2018-12-23T10:15:52.498Z,19.90
2018-12-23T10:17:59.453Z,20.40
2018-12-23T10:20:10.747Z,17.90
2018-12-23T10:22:44.379Z,17.80
2018-12-23T10:24:51.750Z,16.93
2018-12-23T10:26:59.453Z,14.73
2018-12-23T10:29:06.854Z,20.83
2018-12-23T10:31:14.754Z,14.60
2018-12-23T10:33:22.556Z,17.40
2018-12-23T10:35:30.231Z,23.40
2018-12-23T10:37:38.773Z,13.33
2018-12-23T10:39:46.004Z,13.73
2018-12-23T10:41:53.063Z,12.67
2018-12-23T10:46:52.344Z,15.73
2018-12-23T10:48:59.251Z,12.30
2018-12-23T10:51:05.963Z,25.23
2018-12-23T10:53:16.103Z,11.40
2018-12-23T10:55:26.737Z,9.13
2018-12-23T10:57:54.793Z,15.90
2018-12-23T11:00:04.043Z,15.53
2018-12-23T11:02:13.743Z,8.90
2018-12-23T11:04:18.741Z,20.07
2018-12-23T11:06:25.787Z,10.77
2018-12-23T11:08:34.221Z,16.20
2018-12-23T11:10:41.365Z,14.00
2018-12-23T11:13:07.047Z,11.47
2018-12-23T11:15:14.287Z,16.07
2018-12-23T11:17:20.874Z,17.97
2018-12-23T11:19:48.571Z,19.23
2018-12-23T11:21:55.527Z,14.37
2018-12-23T11:24:02.059Z,17.30
2018-12-23T11:26:09.887Z,14.97
2018-12-23T11:28:16.130Z,24.23
2018-12-23T11:30:23.488Z,26.23
2018-12-23T11:32:30.468Z,9.13
2018-12-23T11:34:37.776Z,12.23
2018-12-23T11:36:44.739Z,13.43
2018-12-23T11:38:54.538Z,12.50
2018-12-23T11:41:01.330Z,11.53
2018-12-23T11:43:11.551Z,10.67
2018-12-23T11:45:19.256Z,19.23
2018-12-23T11:47:26.737Z,22.97
2018-12-23T11:49:32.954Z,11.27
2018-12-23T11:51:39.813Z,16.27
2018-12-23T11:53:46.932Z,12.37
2018-12-23T11:55:53.162Z,8.30
2018-12-23T11:58:00.026Z,9.90
2018-12-23T12:00:06.640Z,17.10
2018-12-23T12:02:15.334Z,24.63
2018-12-23T12:04:20.993Z,10.10
2018-12-23T12:06:27.370Z,11.27
2018-12-23T12:08:33.644Z,13.23
2018-12-23T12:10:40.546Z,13.07
2018-12-23T12:12:49.727Z,9.20
2018-12-23T12:14:56.414Z,11.77
2018-12-23T12:17:04.004Z,14.37
2018-12-23T12:19:11.519Z,31.60
2018-12-23T12:21:18.291Z,18.97
2018-12-23T12:23:24.999Z,6.90
2018-12-23T12:25:32.135Z,22.17
2018-12-23T12:27:39.531Z,10.30
2018-12-23T12:30:05.559Z,14.87
2018-12-23T12:32:13.187Z,5.90
2018-12-23T12:34:20.104Z,15.53
2018-12-23T12:36:27.669Z,9.47
2018-12-23T12:38:54.069Z,20.57
2018-12-23T12:41:01.066Z,13.10
2018-12-23T12:43:27.226Z,16.93
2018-12-23T12:46:00.527Z,12.90
2018-12-23T12:48:04.667Z,11.87
2018-12-23T12:50:11.290Z,11.17
2018-12-23T12:52:45.782Z,9.97
2018-12-23T12:55:35.143Z,10.13
2018-12-23T12:58:01.380Z,10.20
2018-12-23T13:00:26.641Z,12.43
2018-12-23T13:03:02.796Z,4.07
2018-12-23T13:05:39.585Z,12.90
2018-12-23T13:07:59.864Z,8.07
2018-12-23T13:10:10.455Z,8.17
2018-12-23T13:12:37.493Z,7.87
2018-12-23T13:15:09.183Z,8.60
2018-12-23T13:17:56.326Z,8.50
2018-12-23T13:20:24.125Z,4.53
2018-12-23T13:23:03.121Z,8.83
2018-12-23T13:25:09.729Z,8.83
2018-12-23T13:27:37.910Z,5.60
2018-12-23T13:29:49.389Z,13.10
2018-12-23T13:31:57.871Z,6.17
2018-12-23T13:34:04.572Z,7.90
2018-12-23T13:36:15.899Z,7.87
2018-12-23T13:39:08.796Z,7.97
2018-12-23T13:42:19.193Z,8.90
2018-12-23T13:45:09.299Z,6.53
2018-12-23T13:51:56.792Z,7.20
2018-12-23T14:28:45.819Z,4.63
2018-12-23T14:30:53.732Z,10.57
2018-12-23T14:33:00.092Z,7.13
2018-12-23T14:35:09.727Z,6.73
2018-12-23T14:37:21.715Z,10.73
2018-12-23T14:39:28.701Z,6.43
2018-12-23T14:41:35.260Z,10.70
2018-12-23T14:44:24.590Z,7.27
2018-12-23T14:53:02.152Z,11.53
2018-12-23T14:55:32.036Z,6.97
2018-12-23T15:03:57.960Z,7.80
2018-12-23T15:06:04.430Z,10.60
2018-12-23T15:08:10.649Z,7.73
2018-12-23T15:10:35.796Z,7.90
2018-12-23T15:12:42.777Z,5.50
2018-12-23T15:14:50.178Z,11.50
2018-12-23T15:16:56.461Z,7.27
2018-12-23T15:19:05.779Z,8.23
2018-12-23T15:21:11.968Z,10.50
2018-12-23T15:23:18.571Z,7.60
2018-12-23T15:25:25.694Z,8.57
2018-12-23T15:27:32.334Z,9.80
2018-12-23T15:29:38.826Z,5.53
2018-12-23T15:31:46.182Z,5.03
2018-12-23T15:33:52.771Z,5.83
2018-12-23T15:35:59.530Z,8.30
2018-12-23T15:38:06.535Z,14.20
2018-12-23T15:40:12.737Z,8.23
2018-12-23T15:42:18.944Z,7.60
2018-12-23T15:44:25.267Z,5.80
2018-12-23T15:46:31.492Z,13.97
2018-12-23T15:48:37.707Z,6.70
2018-12-23T15:50:47.115Z,6.23
2018-12-23T15:52:57.191Z,9.63
2018-12-23T15:55:04.865Z,11.13
2018-12-23T15:57:10.962Z,5.23
2018-12-23T15:59:17.562Z,13.83
2018-12-23T16:01:23.848Z,8.20
2018-12-23T16:03:54.538Z,8.83
2018-12-23T16:08:55.106Z,12.57
2018-12-23T16:11:24.803Z,7.30
2018-12-23T16:13:32.467Z,18.60
2018-12-23T16:15:39.826Z,10.00
2018-12-23T16:18:05.233Z,14.97
2018-12-23T16:20:14.547Z,9.70
2018-12-23T16:22:23.120Z,6.77
2018-12-23T16:24:29.872Z,8.13
2018-12-23T16:26:56.230Z,14.57
2018-12-23T16:29:04.853Z,7.57
2018-12-23T16:31:11.263Z,9.53
2018-12-23T16:33:17.635Z,8.40
2018-12-23T16:35:25.038Z,13.47
2018-12-23T16:37:31.519Z,7.80
2018-12-23T16:39:38.047Z,12.60
2018-12-23T16:41:45.632Z,10.27
2018-12-23T16:43:52.291Z,7.90
2018-12-23T16:45:58.809Z,13.70
2018-12-23T16:48:05.680Z,5.27
2018-12-23T16:50:12.412Z,6.37
2018-12-23T16:52:19.470Z,8.90
2018-12-23T16:54:26.236Z,8.57
2018-12-23T16:56:36.714Z,6.83
2018-12-23T16:59:02.095Z,5.37
2018-12-23T17:01:14.517Z,5.00
2018-12-23T17:03:21.178Z,10.50
2018-12-23T17:05:28.386Z,9.80
2018-12-23T17:07:34.695Z,6.13
2018-12-23T17:09:42.982Z,9.37
2018-12-23T17:11:49.841Z,5.67
2018-12-23T17:13:57.352Z,6.43
2018-12-23T17:16:05.578Z,6.93
2018-12-23T17:18:32.628Z,10.47
2018-12-23T17:20:42.027Z,6.20
2018-12-23T17:23:00.517Z,10.60
2018-12-23T17:25:10.656Z,7.00
2018-12-23T17:27:18.242Z,6.27
2018-12-23T17:29:26.897Z,8.23
2018-12-23T17:31:36.752Z,9.77
2018-12-23T17:34:00.881Z,6.90
2018-12-23T17:36:23.429Z,10.23
2018-12-23T17:38:35.975Z,6.17
2018-12-23T17:40:49.772Z,6.17
2018-12-23T17:43:07.123Z,10.37
2018-12-23T17:45:15.854Z,8.97
2018-12-23T17:47:27.470Z,12.43
2018-12-23T17:49:36.070Z,7.97
2018-12-23T17:51:45.227Z,10.43
2018-12-23T17:53:53.790Z,12.37
2018-12-23T17:56:07.242Z,8.87
2018-12-23T17:58:16.214Z,8.90
2018-12-23T18:00:27.069Z,11.80
2018-12-23T18:02:40.236Z,11.23
2018-12-23T18:04:46.529Z,10.40
2018-12-23T18:07:03.552Z,9.20
2018-12-23T18:09:05.205Z,7.20
2018-12-23T18:11:12.278Z,9.90
2018-12-23T18:13:18.954Z,11.23
2018-12-23T18:15:27.051Z,11.20
2018-12-23T18:17:33.507Z,11.53
2018-12-23T18:19:39.822Z,12.20
2018-12-23T18:21:46.470Z,12.57
2018-12-23T18:23:52.684Z,13.87
2018-12-23T18:25:58.980Z,13.43
2018-12-23T18:28:05.739Z,13.30
2018-12-23T18:30:12.287Z,13.80
2018-12-23T18:32:22.694Z,14.80
2018-12-23T18:34:29.133Z,13.57
2018-12-23T18:36:35.393Z,18.63
2018-12-23T18:38:41.862Z,12.50
2018-12-23T18:40:49.696Z,13.27
2018-12-23T18:42:56.260Z,13.53
2018-12-23T18:45:06.740Z,15.03
2018-12-23T18:47:13.589Z,14.43
2018-12-23T18:49:20.485Z,13.63
2018-12-23T18:51:26.793Z,13.70
2018-12-23T18:53:33.248Z,11.60
2018-12-23T18:55:40.191Z,13.50
2018-12-23T18:57:49.149Z,13.17
2018-12-23T18:59:56.061Z,17.27
2018-12-23T19:02:08.592Z,12.83
2018-12-23T19:04:15.099Z,13.27
2018-12-23T19:06:21.417Z,15.03
2018-12-23T19:09:07.460Z,12.43
2018-12-23T19:12:23.883Z,15.37
2018-12-23T19:15:02.576Z,18.37
2018-12-23T19:18:18.480Z,18.70
2018-12-23T19:21:16.288Z,19.40
2018-12-23T19:24:31.594Z,15.13
2018-12-23T19:27:41.220Z,16.63
2018-12-23T19:30:28.412Z,16.60
2018-12-23T19:33:29.390Z,14.70
2018-12-23T19:36:03.425Z,14.20
2018-12-23T19:38:54.164Z,9.30
2018-12-23T19:41:48.528Z,9.90
2018-12-23T19:44:23.988Z,14.37
2018-12-23T19:47:45.101Z,11.00
2018-12-23T19:50:50.051Z,10.53
2018-12-23T19:54:01.591Z,9.87
2018-12-23T19:57:28.608Z,13.87
2018-12-23T20:00:27.376Z,9.10
2018-12-23T20:03:54.159Z,11.63
2018-12-23T20:06:49.344Z,13.17
2018-12-23T20:10:16.937Z,19.30
2018-12-23T20:13:58.816Z,18.40
2018-12-23T20:16:50.836Z,13.70
2018-12-23T20:19:56.816Z,16.77
2018-12-23T20:23:05.597Z,17.20
2018-12-23T20:25:51.515Z,15.07
2018-12-23T20:29:10.055Z,11.70
2018-12-23T20:31:59.137Z,15.67
2018-12-23T20:35:05.383Z,18.30
2018-12-23T20:38:00.213Z,14.10
2018-12-23T20:41:07.683Z,11.27
2018-12-23T20:44:41.890Z,8.73
2018-12-23T20:47:54.019Z,10.17
2018-12-23T20:51:10.687Z,12.03
2018-12-23T20:54:13.714Z,11.23
2018-12-23T20:57:35.176Z,7.30
2018-12-23T21:00:39.710Z,9.50
2018-12-23T21:04:05.770Z,6.37
2018-12-23T21:08:09.490Z,4.80
2018-12-23T21:14:59.353Z,2.80
2018-12-23T21:17:53.622Z,1.83
2018-12-23T21:20:57.583Z,2.90
2018-12-23T21:23:59.450Z,1.83
2018-12-23T21:27:07.360Z,3.40
2018-12-23T21:30:08.331Z,2.13
2018-12-23T21:33:15.529Z,1.93
2018-12-23T21:36:16.736Z,2.80
2018-12-23T21:39:12.161Z,3.60
2018-12-23T21:42:22.469Z,5.13
2018-12-23T21:45:26.070Z,3.10
2018-12-23T21:48:26.902Z,2.17
2018-12-23T21:51:47.752Z,3.50
2018-12-23T21:54:52.851Z,6.50
2018-12-23T21:57:55.555Z,2.87
2018-12-23T22:01:18.531Z,2.40
2018-12-23T22:04:43.632Z,2.90
2018-12-23T22:07:37.591Z,4.90
2018-12-23T22:10:37.420Z,2.10
2018-12-23T22:13:40.545Z,2.57
2018-12-23T22:15:59.525Z,4.97
2018-12-23T22:20:48.500Z,2.83
2018-12-23T22:25:29.876Z,4.47
2018-12-23T22:27:39.690Z,5.00
2018-12-23T22:29:46.215Z,7.00
2018-12-23T22:31:57.294Z,3.73
2018-12-23T22:34:03.484Z,5.73
2018-12-23T22:36:13.528Z,7.50
2018-12-23T22:38:22.017Z,9.20
2018-12-23T22:40:53.062Z,7.53
2018-12-23T22:43:00.075Z,13.10
2018-12-23T22:45:09.575Z,13.07
2018-12-23T22:47:20.264Z,11.37
2018-12-23T22:49:36.842Z,12.83
2018-12-23T22:51:49.697Z,10.80
2018-12-23T22:56:30.801Z,7.97
2018-12-23T22:58:42.869Z,6.63
2018-12-23T23:00:52.913Z,5.70
2018-12-23T23:03:36.726Z,6.60
2018-12-23T23:06:14.083Z,5.43
2018-12-23T23:08:20.340Z,5.43
2018-12-23T23:10:26.887Z,4.17
2018-12-23T23:12:33.089Z,5.10
2018-12-23T23:14:39.245Z,4.63
2018-12-23T23:16:45.415Z,2.57
2018-12-23T23:18:51.747Z,4.73
2018-12-23T23:20:57.967Z,4.67
2018-12-23T23:23:04.189Z,5.13
2018-12-23T23:25:10.896Z,6.50
2018-12-23T23:27:17.222Z,4.17
2018-12-23T23:29:23.458Z,5.23
2018-12-23T23:31:32.395Z,5.63
2018-12-23T23:33:38.640Z,10.27
2018-12-23T23:35:44.928Z,3.90
2018-12-23T23:37:51.864Z,6.77
2018-12-23T23:39:58.104Z,8.80
2018-12-23T23:42:04.422Z,9.57
2018-12-23T23:44:10.750Z,8.33
2018-12-23T23:46:17.034Z,7.50
2018-12-23T23:48:24.616Z,11.80
2018-12-23T23:50:30.946Z,14.23
2018-12-23T23:52:37.561Z,14.40
2018-12-23T23:54:44.380Z,9.67
2018-12-23T23:56:53.987Z,9.43
2018-12-23T23:59:02.571Z,7.73
